sensor_id;sensor_type;location;lat;lon;timestamp;P1;durP1;ratioP1;P2;durP2;ratioP2
38567;SDS011;24338;48.280;10.970;2023-03-23T00:01:16;9.10;;;5.75;;
38567;SDS011;24338;48.280;10.970;2023-03-23T00:03:49;10.05;;;6.18;;
38567;SDS011;24338;48.280;10.970;2023-03-23T00:06:18;13.23;;;5.82;;
38567;SDS011;24338;48.280;10.970;2023-03-23T00:08:47;17.10;;;6.35;;
38567;SDS011;24338;48.280;10.970;2023-03-23T00:11:23;10.85;;;5.75;;
38567;SDS011;24338;48.280;10.970;2023-03-23T00:16:28;11.75;;;5.60;;
38567;SDS011;24338;48.280;10.970;2023-03-23T00:18:58;10.40;;;5.90;;
38567;SDS011;24338;48.280;10.970;2023-03-23T00:21:31;11.18;;;6.03;;
38567;SDS011;24338;48.280;10.970;2023-03-23T00:24:03;11.48;;;6.72;;
38567;SDS011;24338;48.280;10.970;2023-03-23T00:26:48;16.08;;;7.22;;
38567;SDS011;24338;48.280;10.970;2023-03-23T00:29:21;13.13;;;6.80;;
38567;SDS011;24338;48.280;10.970;2023-03-23T00:31:50;8.98;;;5.47;;
38567;SDS011;24338;48.280;10.970;2023-03-23T00:34:21;9.35;;;5.75;;
38567;SDS011;24338;48.280;10.970;2023-03-23T00:36:52;8.48;;;5.80;;
38567;SDS011;24338;48.280;10.970;2023-03-23T00:39:28;12.35;;;6.55;;
38567;SDS011;24338;48.280;10.970;2023-03-23T00:41:56;10.00;;;6.18;;
38567;SDS011;24338;48.280;10.970;2023-03-23T00:44:30;10.80;;;6.50;;
38567;SDS011;24338;48.280;10.970;2023-03-23T00:46:59;11.07;;;6.10;;
38567;SDS011;24338;48.280;10.970;2023-03-23T00:49:27;10.10;;;5.95;;
38567;SDS011;24338;48.280;10.970;2023-03-23T00:51:55;18.55;;;6.15;;
38567;SDS011;24338;48.280;10.970;2023-03-23T00:54:24;15.18;;;6.72;;
38567;SDS011;24338;48.280;10.970;2023-03-23T00:56:52;9.88;;;5.70;;
38567;SDS011;24338;48.280;10.970;2023-03-23T00:59:21;11.68;;;6.53;;
38567;SDS011;24338;48.280;10.970;2023-03-23T01:01:48;11.48;;;5.90;;
38567;SDS011;24338;48.280;10.970;2023-03-23T01:04:16;10.63;;;5.95;;
38567;SDS011;24338;48.280;10.970;2023-03-23T01:06:44;9.63;;;5.95;;
38567;SDS011;24338;48.280;10.970;2023-03-23T01:09:20;9.07;;;5.75;;
38567;SDS011;24338;48.280;10.970;2023-03-23T01:11:47;11.80;;;5.63;;
38567;SDS011;24338;48.280;10.970;2023-03-23T01:14:16;8.35;;;5.40;;
38567;SDS011;24338;48.280;10.970;2023-03-23T01:16:44;13.00;;;5.90;;
38567;SDS011;24338;48.280;10.970;2023-03-23T01:19:10;9.70;;;5.35;;
38567;SDS011;24338;48.280;10.970;2023-03-23T01:21:37;9.13;;;5.75;;
38567;SDS011;24338;48.280;10.970;2023-03-23T01:24:03;10.48;;;5.95;;
38567;SDS011;24338;48.280;10.970;2023-03-23T01:26:32;12.60;;;6.38;;
38567;SDS011;24338;48.280;10.970;2023-03-23T01:28:58;11.48;;;6.20;;
38567;SDS011;24338;48.280;10.970;2023-03-23T01:31:24;12.02;;;5.72;;
38567;SDS011;24338;48.280;10.970;2023-03-23T01:33:51;10.93;;;5.57;;
38567;SDS011;24338;48.280;10.970;2023-03-23T01:36:22;9.52;;;5.93;;
38567;SDS011;24338;48.280;10.970;2023-03-23T01:38:51;8.57;;;4.53;;
38567;SDS011;24338;48.280;10.970;2023-03-23T01:41:19;11.63;;;5.82;;
38567;SDS011;24338;48.280;10.970;2023-03-23T01:43:54;9.82;;;5.90;;
38567;SDS011;24338;48.280;10.970;2023-03-23T01:46:22;9.32;;;4.97;;
38567;SDS011;24338;48.280;10.970;2023-03-23T01:48:52;13.90;;;7.18;;
38567;SDS011;24338;48.280;10.970;2023-03-23T01:51:20;10.70;;;4.90;;
38567;SDS011;24338;48.280;10.970;2023-03-23T01:53:49;9.60;;;5.50;;
38567;SDS011;24338;48.280;10.970;2023-03-23T01:56:21;7.68;;;5.45;;
38567;SDS011;24338;48.280;10.970;2023-03-23T01:58:50;10.23;;;5.85;;
38567;SDS011;24338;48.280;10.970;2023-03-23T02:01:21;10.05;;;5.22;;
38567;SDS011;24338;48.280;10.970;2023-03-23T02:03:50;9.57;;;4.85;;
38567;SDS011;24338;48.280;10.970;2023-03-23T02:06:19;13.38;;;6.30;;
38567;SDS011;24338;48.280;10.970;2023-03-23T02:08:46;9.50;;;5.47;;
38567;SDS011;24338;48.280;10.970;2023-03-23T02:11:17;8.80;;;5.28;;
38567;SDS011;24338;48.280;10.970;2023-03-23T02:13:44;10.90;;;5.65;;
38567;SDS011;24338;48.280;10.970;2023-03-23T02:19:15;8.43;;;4.90;;
38567;SDS011;24338;48.280;10.970;2023-03-23T02:35:37;8.40;;;5.18;;
38567;SDS011;24338;48.280;10.970;2023-03-23T02:38:07;9.23;;;4.65;;
38567;SDS011;24338;48.280;10.970;2023-03-23T02:40:40;7.53;;;4.82;;
38567;SDS011;24338;48.280;10.970;2023-03-23T02:43:10;6.70;;;4.70;;
38567;SDS011;24338;48.280;10.970;2023-03-23T02:45:39;12.95;;;5.15;;
38567;SDS011;24338;48.280;10.970;2023-03-23T02:48:09;8.13;;;5.07;;
38567;SDS011;24338;48.280;10.970;2023-03-23T02:50:38;8.45;;;5.13;;
38567;SDS011;24338;48.280;10.970;2023-03-23T02:53:09;8.32;;;4.95;;
38567;SDS011;24338;48.280;10.970;2023-03-23T02:55:39;7.63;;;5.40;;
38567;SDS011;24338;48.280;10.970;2023-03-23T02:58:09;8.02;;;4.90;;
38567;SDS011;24338;48.280;10.970;2023-03-23T03:00:37;6.65;;;4.68;;
38567;SDS011;24338;48.280;10.970;2023-03-23T03:03:11;7.78;;;4.88;;
38567;SDS011;24338;48.280;10.970;2023-03-23T03:10:58;8.90;;;5.55;;
38567;SDS011;24338;48.280;10.970;2023-03-23T03:24:03;6.90;;;4.78;;
38567;SDS011;24338;48.280;10.970;2023-03-23T03:26:39;8.85;;;5.47;;
38567;SDS011;24338;48.280;10.970;2023-03-23T03:29:18;6.65;;;4.70;;
38567;SDS011;24338;48.280;10.970;2023-03-23T03:31:49;8.60;;;4.47;;
38567;SDS011;24338;48.280;10.970;2023-03-23T03:36:50;7.97;;;4.25;;
38567;SDS011;24338;48.280;10.970;2023-03-23T03:39:21;6.85;;;4.47;;
38567;SDS011;24338;48.280;10.970;2023-03-23T03:41:50;6.95;;;4.88;;
38567;SDS011;24338;48.280;10.970;2023-03-23T03:44:18;9.10;;;4.57;;
38567;SDS011;24338;48.280;10.970;2023-03-23T03:46:49;7.68;;;4.95;;
38567;SDS011;24338;48.280;10.970;2023-03-23T03:49:18;7.72;;;4.50;;
38567;SDS011;24338;48.280;10.970;2023-03-23T03:51:49;7.28;;;4.88;;
38567;SDS011;24338;48.280;10.970;2023-03-23T03:54:18;8.88;;;5.13;;
38567;SDS011;24338;48.280;10.970;2023-03-23T03:56:49;6.68;;;4.65;;
38567;SDS011;24338;48.280;10.970;2023-03-23T03:59:24;6.32;;;4.32;;
38567;SDS011;24338;48.280;10.970;2023-03-23T04:01:54;8.43;;;4.60;;
38567;SDS011;24338;48.280;10.970;2023-03-23T04:04:24;7.25;;;4.35;;
38567;SDS011;24338;48.280;10.970;2023-03-23T04:06:55;7.10;;;4.72;;
38567;SDS011;24338;48.280;10.970;2023-03-23T04:09:25;8.05;;;4.78;;
38567;SDS011;24338;48.280;10.970;2023-03-23T04:11:58;6.47;;;4.50;;
38567;SDS011;24338;48.280;10.970;2023-03-23T04:14:28;9.07;;;5.13;;
38567;SDS011;24338;48.280;10.970;2023-03-23T04:17:03;8.98;;;4.47;;
38567;SDS011;24338;48.280;10.970;2023-03-23T04:19:33;10.13;;;4.50;;
38567;SDS011;24338;48.280;10.970;2023-03-23T04:22:03;8.55;;;5.32;;
38567;SDS011;24338;48.280;10.970;2023-03-23T04:24:32;7.72;;;4.80;;
38567;SDS011;24338;48.280;10.970;2023-03-23T04:27:02;8.73;;;4.47;;
38567;SDS011;24338;48.280;10.970;2023-03-23T04:29:31;8.80;;;4.20;;
38567;SDS011;24338;48.280;10.970;2023-03-23T04:32:13;7.03;;;4.43;;
38567;SDS011;24338;48.280;10.970;2023-03-23T04:35:08;6.40;;;3.88;;
38567;SDS011;24338;48.280;10.970;2023-03-23T04:37:36;7.32;;;4.07;;
38567;SDS011;24338;48.280;10.970;2023-03-23T04:40:03;7.28;;;4.10;;
38567;SDS011;24338;48.280;10.970;2023-03-23T04:42:36;7.40;;;4.00;;
38567;SDS011;24338;48.280;10.970;2023-03-23T04:45:04;6.88;;;3.67;;
38567;SDS011;24338;48.280;10.970;2023-03-23T04:47:33;5.70;;;4.03;;
38567;SDS011;24338;48.280;10.970;2023-03-23T04:50:10;8.02;;;4.18;;
38567;SDS011;24338;48.280;10.970;2023-03-23T04:52:38;9.23;;;5.20;;
38567;SDS011;24338;48.280;10.970;2023-03-23T04:55:10;10.05;;;4.75;;
38567;SDS011;24338;48.280;10.970;2023-03-23T04:57:37;6.13;;;3.70;;
38567;SDS011;24338;48.280;10.970;2023-03-23T05:00:04;7.25;;;3.92;;
38567;SDS011;24338;48.280;10.970;2023-03-23T05:02:35;9.20;;;5.07;;
38567;SDS011;24338;48.280;10.970;2023-03-23T05:05:01;6.78;;;4.45;;
38567;SDS011;24338;48.280;10.970;2023-03-23T05:07:27;6.15;;;4.03;;
38567;SDS011;24338;48.280;10.970;2023-03-23T05:09:53;7.72;;;4.00;;
38567;SDS011;24338;48.280;10.970;2023-03-23T05:12:18;5.75;;;3.65;;
38567;SDS011;24338;48.280;10.970;2023-03-23T05:14:44;7.13;;;4.47;;
38567;SDS011;24338;48.280;10.970;2023-03-23T05:17:10;6.57;;;3.92;;
38567;SDS011;24338;48.280;10.970;2023-03-23T05:19:37;7.20;;;3.65;;
38567;SDS011;24338;48.280;10.970;2023-03-23T05:22:03;7.40;;;3.60;;
38567;SDS011;24338;48.280;10.970;2023-03-23T05:24:29;5.95;;;3.92;;
38567;SDS011;24338;48.280;10.970;2023-03-23T05:26:59;9.43;;;4.25;;
38567;SDS011;24338;48.280;10.970;2023-03-23T05:29:25;7.65;;;3.65;;
38567;SDS011;24338;48.280;10.970;2023-03-23T05:31:53;8.43;;;4.13;;
38567;SDS011;24338;48.280;10.970;2023-03-23T05:34:20;8.05;;;4.57;;
38567;SDS011;24338;48.280;10.970;2023-03-23T05:36:46;7.20;;;4.30;;
38567;SDS011;24338;48.280;10.970;2023-03-23T05:39:12;7.03;;;4.10;;
38567;SDS011;24338;48.280;10.970;2023-03-23T05:41:39;4.97;;;3.92;;
38567;SDS011;24338;48.280;10.970;2023-03-23T05:44:05;7.05;;;3.97;;
38567;SDS011;24338;48.280;10.970;2023-03-23T05:46:31;7.18;;;3.35;;
38567;SDS011;24338;48.280;10.970;2023-03-23T05:48:57;8.15;;;3.78;;
38567;SDS011;24338;48.280;10.970;2023-03-23T05:51:23;7.68;;;3.63;;
38567;SDS011;24338;48.280;10.970;2023-03-23T05:53:49;7.10;;;4.00;;
38567;SDS011;24338;48.280;10.970;2023-03-23T05:56:14;7.82;;;3.85;;
38567;SDS011;24338;48.280;10.970;2023-03-23T05:58:40;6.22;;;3.65;;
38567;SDS011;24338;48.280;10.970;2023-03-23T06:01:06;6.97;;;3.65;;
38567;SDS011;24338;48.280;10.970;2023-03-23T06:03:33;6.95;;;3.67;;
38567;SDS011;24338;48.280;10.970;2023-03-23T06:06:01;5.50;;;3.03;;
38567;SDS011;24338;48.280;10.970;2023-03-23T06:08:28;5.43;;;3.05;;
38567;SDS011;24338;48.280;10.970;2023-03-23T06:10:54;5.72;;;3.40;;
38567;SDS011;24338;48.280;10.970;2023-03-23T06:13:20;7.45;;;3.60;;
38567;SDS011;24338;48.280;10.970;2023-03-23T06:15:46;6.05;;;2.90;;
38567;SDS011;24338;48.280;10.970;2023-03-23T06:18:12;8.50;;;3.40;;
38567;SDS011;24338;48.280;10.970;2023-03-23T06:20:39;6.10;;;3.22;;
38567;SDS011;24338;48.280;10.970;2023-03-23T06:23:05;6.18;;;3.15;;
38567;SDS011;24338;48.280;10.970;2023-03-23T06:25:31;5.50;;;3.22;;
38567;SDS011;24338;48.280;10.970;2023-03-23T06:27:58;5.35;;;3.40;;
38567;SDS011;24338;48.280;10.970;2023-03-23T06:30:24;6.90;;;3.70;;
38567;SDS011;24338;48.280;10.970;2023-03-23T06:32:52;7.57;;;4.05;;
38567;SDS011;24338;48.280;10.970;2023-03-23T06:35:18;7.30;;;3.72;;
38567;SDS011;24338;48.280;10.970;2023-03-23T06:37:44;7.32;;;3.70;;
38567;SDS011;24338;48.280;10.970;2023-03-23T06:40:10;6.65;;;3.53;;
38567;SDS011;24338;48.280;10.970;2023-03-23T06:42:36;7.97;;;3.45;;
38567;SDS011;24338;48.280;10.970;2023-03-23T06:45:03;6.05;;;3.17;;
38567;SDS011;24338;48.280;10.970;2023-03-23T06:47:29;7.72;;;4.40;;
38567;SDS011;24338;48.280;10.970;2023-03-23T06:49:56;6.68;;;3.42;;
38567;SDS011;24338;48.280;10.970;2023-03-23T06:52:25;6.80;;;3.67;;
38567;SDS011;24338;48.280;10.970;2023-03-23T06:54:51;7.45;;;3.60;;
38567;SDS011;24338;48.280;10.970;2023-03-23T06:57:17;8.88;;;3.78;;
38567;SDS011;24338;48.280;10.970;2023-03-23T06:59:44;7.00;;;3.25;;
38567;SDS011;24338;48.280;10.970;2023-03-23T07:02:11;6.18;;;3.55;;
38567;SDS011;24338;48.280;10.970;2023-03-23T07:04:39;7.32;;;3.50;;
38567;SDS011;24338;48.280;10.970;2023-03-23T07:07:07;6.85;;;3.50;;
38567;SDS011;24338;48.280;10.970;2023-03-23T07:09:33;9.02;;;3.88;;
38567;SDS011;24338;48.280;10.970;2023-03-23T07:11:59;6.35;;;3.47;;
38567;SDS011;24338;48.280;10.970;2023-03-23T07:14:25;7.68;;;3.63;;
38567;SDS011;24338;48.280;10.970;2023-03-23T07:16:51;8.07;;;3.80;;
38567;SDS011;24338;48.280;10.970;2023-03-23T07:19:18;7.22;;;3.45;;
38567;SDS011;24338;48.280;10.970;2023-03-23T07:21:44;6.85;;;3.78;;
38567;SDS011;24338;48.280;10.970;2023-03-23T07:24:11;7.10;;;3.25;;
38567;SDS011;24338;48.280;10.970;2023-03-23T07:26:40;7.03;;;3.50;;
38567;SDS011;24338;48.280;10.970;2023-03-23T07:29:07;5.43;;;2.95;;
38567;SDS011;24338;48.280;10.970;2023-03-23T07:31:33;6.28;;;3.85;;
38567;SDS011;24338;48.280;10.970;2023-03-23T07:33:59;7.50;;;3.80;;
38567;SDS011;24338;48.280;10.970;2023-03-23T07:36:25;10.20;;;3.60;;
38567;SDS011;24338;48.280;10.970;2023-03-23T07:38:52;6.68;;;3.67;;
38567;SDS011;24338;48.280;10.970;2023-03-23T07:41:18;6.88;;;3.35;;
38567;SDS011;24338;48.280;10.970;2023-03-23T07:43:44;7.45;;;3.80;;
38567;SDS011;24338;48.280;10.970;2023-03-23T07:46:11;5.45;;;3.30;;
38567;SDS011;24338;48.280;10.970;2023-03-23T07:48:41;4.82;;;3.38;;
38567;SDS011;24338;48.280;10.970;2023-03-23T07:51:06;6.25;;;3.00;;
38567;SDS011;24338;48.280;10.970;2023-03-23T07:53:32;7.55;;;3.00;;
38567;SDS011;24338;48.280;10.970;2023-03-23T07:55:58;5.75;;;2.88;;
38567;SDS011;24338;48.280;10.970;2023-03-23T07:58:25;5.88;;;2.53;;
38567;SDS011;24338;48.280;10.970;2023-03-23T08:00:51;5.75;;;2.55;;
38567;SDS011;24338;48.280;10.970;2023-03-23T08:03:17;5.60;;;2.92;;
38567;SDS011;24338;48.280;10.970;2023-03-23T08:05:43;5.47;;;2.80;;
38567;SDS011;24338;48.280;10.970;2023-03-23T08:08:09;6.35;;;2.92;;
38567;SDS011;24338;48.280;10.970;2023-03-23T08:10:35;5.93;;;3.15;;
38567;SDS011;24338;48.280;10.970;2023-03-23T08:13:02;4.10;;;2.00;;
38567;SDS011;24338;48.280;10.970;2023-03-23T08:15:28;6.32;;;2.42;;
38567;SDS011;24338;48.280;10.970;2023-03-23T08:17:54;8.48;;;2.60;;
38567;SDS011;24338;48.280;10.970;2023-03-23T08:20:20;6.85;;;2.97;;
38567;SDS011;24338;48.280;10.970;2023-03-23T08:22:54;4.75;;;2.10;;
38567;SDS011;24338;48.280;10.970;2023-03-23T08:25:21;3.90;;;1.98;;
38567;SDS011;24338;48.280;10.970;2023-03-23T08:27:49;7.22;;;2.47;;
38567;SDS011;24338;48.280;10.970;2023-03-23T08:30:16;5.82;;;2.47;;
38567;SDS011;24338;48.280;10.970;2023-03-23T08:32:47;3.97;;;1.95;;
38567;SDS011;24338;48.280;10.970;2023-03-23T08:35:15;3.88;;;2.25;;
38567;SDS011;24338;48.280;10.970;2023-03-23T08:37:41;4.57;;;1.90;;
38567;SDS011;24338;48.280;10.970;2023-03-23T08:40:07;4.07;;;1.92;;
38567;SDS011;24338;48.280;10.970;2023-03-23T08:42:38;3.30;;;1.80;;
38567;SDS011;24338;48.280;10.970;2023-03-23T08:45:06;3.58;;;1.80;;
38567;SDS011;24338;48.280;10.970;2023-03-23T08:47:33;3.03;;;1.50;;
38567;SDS011;24338;48.280;10.970;2023-03-23T08:50:00;3.53;;;1.90;;
38567;SDS011;24338;48.280;10.970;2023-03-23T08:52:27;3.40;;;1.45;;
38567;SDS011;24338;48.280;10.970;2023-03-23T08:54:54;2.83;;;1.30;;
38567;SDS011;24338;48.280;10.970;2023-03-23T08:57:22;2.30;;;0.90;;
38567;SDS011;24338;48.280;10.970;2023-03-23T08:59:49;4.40;;;1.15;;
38567;SDS011;24338;48.280;10.970;2023-03-23T09:02:16;4.10;;;1.30;;
38567;SDS011;24338;48.280;10.970;2023-03-23T09:04:42;3.58;;;1.23;;
38567;SDS011;24338;48.280;10.970;2023-03-23T09:07:11;11.38;;;5.95;;
38567;SDS011;24338;48.280;10.970;2023-03-23T09:09:39;9.13;;;4.47;;
38567;SDS011;24338;48.280;10.970;2023-03-23T09:12:06;4.13;;;1.73;;
38567;SDS011;24338;48.280;10.970;2023-03-23T09:14:33;4.05;;;1.70;;
38567;SDS011;24338;48.280;10.970;2023-03-23T09:17:02;1.75;;;0.75;;
38567;SDS011;24338;48.280;10.970;2023-03-23T09:19:29;3.95;;;1.10;;
38567;SDS011;24338;48.280;10.970;2023-03-23T09:21:56;3.72;;;0.95;;
38567;SDS011;24338;48.280;10.970;2023-03-23T09:24:25;2.67;;;0.80;;
38567;SDS011;24338;48.280;10.970;2023-03-23T09:26:51;1.90;;;0.70;;
38567;SDS011;24338;48.280;10.970;2023-03-23T09:29:17;2.10;;;0.90;;
38567;SDS011;24338;48.280;10.970;2023-03-23T09:31:43;3.75;;;0.95;;
38567;SDS011;24338;48.280;10.970;2023-03-23T09:34:11;5.05;;;0.73;;
38567;SDS011;24338;48.280;10.970;2023-03-23T09:36:38;3.38;;;0.80;;
38567;SDS011;24338;48.280;10.970;2023-03-23T09:39:07;2.90;;;1.27;;
38567;SDS011;24338;48.280;10.970;2023-03-23T09:50:00;2.20;;;0.90;;
38567;SDS011;24338;48.280;10.970;2023-03-23T09:52:37;2.10;;;0.70;;
38567;SDS011;24338;48.280;10.970;2023-03-23T09:55:27;2.20;;;0.63;;
38567;SDS011;24338;48.280;10.970;2023-03-23T10:00:41;2.38;;;0.80;;
38567;SDS011;24338;48.280;10.970;2023-03-23T10:03:19;2.47;;;0.95;;
38567;SDS011;24338;48.280;10.970;2023-03-23T10:05:50;5.13;;;0.90;;
38567;SDS011;24338;48.280;10.970;2023-03-23T10:08:21;2.85;;;1.10;;
38567;SDS011;24338;48.280;10.970;2023-03-23T10:16:03;3.92;;;0.95;;
38567;SDS011;24338;48.280;10.970;2023-03-23T10:21:06;3.45;;;0.95;;
38567;SDS011;24338;48.280;10.970;2023-03-23T10:26:21;3.00;;;0.95;;
38567;SDS011;24338;48.280;10.970;2023-03-23T10:28:54;2.72;;;0.50;;
38567;SDS011;24338;48.280;10.970;2023-03-23T10:31:24;2.55;;;0.75;;
38567;SDS011;24338;48.280;10.970;2023-03-23T10:33:56;3.78;;;1.20;;
38567;SDS011;24338;48.280;10.970;2023-03-23T10:36:31;1.58;;;0.75;;
38567;SDS011;24338;48.280;10.970;2023-03-23T10:39:10;2.40;;;0.90;;
38567;SDS011;24338;48.280;10.970;2023-03-23T10:41:39;1.50;;;0.68;;
38567;SDS011;24338;48.280;10.970;2023-03-23T10:44:13;1.73;;;0.60;;
38567;SDS011;24338;48.280;10.970;2023-03-23T10:49:41;1.80;;;0.88;;
38567;SDS011;24338;48.280;10.970;2023-03-23T10:57:32;3.45;;;0.90;;
38567;SDS011;24338;48.280;10.970;2023-03-23T11:00:00;3.75;;;0.90;;
38567;SDS011;24338;48.280;10.970;2023-03-23T11:02:45;2.33;;;0.73;;
38567;SDS011;24338;48.280;10.970;2023-03-23T11:07:48;2.38;;;0.93;;
38567;SDS011;24338;48.280;10.970;2023-03-23T11:10:23;2.63;;;0.85;;
38567;SDS011;24338;48.280;10.970;2023-03-23T11:12:52;5.22;;;0.70;;
38567;SDS011;24338;48.280;10.970;2023-03-23T11:15:27;6.15;;;0.85;;
38567;SDS011;24338;48.280;10.970;2023-03-23T11:18:11;2.63;;;0.68;;
38567;SDS011;24338;48.280;10.970;2023-03-23T11:20:43;2.00;;;0.73;;
38567;SDS011;24338;48.280;10.970;2023-03-23T11:23:32;1.38;;;0.55;;
38567;SDS011;24338;48.280;10.970;2023-03-23T11:29:09;3.67;;;1.02;;
38567;SDS011;24338;48.280;10.970;2023-03-23T11:31:45;1.15;;;0.45;;
38567;SDS011;24338;48.280;10.970;2023-03-23T11:37:03;5.70;;;0.85;;
38567;SDS011;24338;48.280;10.970;2023-03-23T11:39:45;2.85;;;0.88;;
38567;SDS011;24338;48.280;10.970;2023-03-23T11:42:13;2.15;;;1.00;;
38567;SDS011;24338;48.280;10.970;2023-03-23T11:44:45;6.22;;;0.80;;
38567;SDS011;24338;48.280;10.970;2023-03-23T11:49:58;2.20;;;0.80;;
38567;SDS011;24338;48.280;10.970;2023-03-23T11:55:49;1.92;;;0.60;;
38567;SDS011;24338;48.280;10.970;2023-03-23T11:58:20;1.73;;;0.70;;
38567;SDS011;24338;48.280;10.970;2023-03-23T12:01:48;3.33;;;0.90;;
38567;SDS011;24338;48.280;10.970;2023-03-23T12:15:01;2.17;;;0.75;;
38567;SDS011;24338;48.280;10.970;2023-03-23T12:17:59;3.03;;;1.55;;
38567;SDS011;24338;48.280;10.970;2023-03-23T12:26:26;3.75;;;0.85;;
38567;SDS011;24338;48.280;10.970;2023-03-23T12:31:46;4.13;;;1.38;;
38567;SDS011;24338;48.280;10.970;2023-03-23T12:36:51;2.55;;;1.17;;
38567;SDS011;24338;48.280;10.970;2023-03-23T12:50:16;3.05;;;0.80;;
38567;SDS011;24338;48.280;10.970;2023-03-23T12:55:18;3.17;;;1.00;;
38567;SDS011;24338;48.280;10.970;2023-03-23T12:57:57;2.78;;;0.75;;
38567;SDS011;24338;48.280;10.970;2023-03-23T13:00:28;1.20;;;0.60;;
38567;SDS011;24338;48.280;10.970;2023-03-23T13:03:04;3.42;;;0.70;;
38567;SDS011;24338;48.280;10.970;2023-03-23T13:05:49;2.03;;;0.70;;
38567;SDS011;24338;48.280;10.970;2023-03-23T13:08:27;2.45;;;0.85;;
38567;SDS011;24338;48.280;10.970;2023-03-23T13:22:56;3.83;;;0.90;;
38567;SDS011;24338;48.280;10.970;2023-03-23T13:28:24;2.03;;;0.80;;
38567;SDS011;24338;48.280;10.970;2023-03-23T13:30:57;2.42;;;0.80;;
38567;SDS011;24338;48.280;10.970;2023-03-23T13:33:25;1.33;;;0.63;;
38567;SDS011;24338;48.280;10.970;2023-03-23T13:35:54;4.57;;;1.05;;
38567;SDS011;24338;48.280;10.970;2023-03-23T13:38:27;3.50;;;1.00;;
38567;SDS011;24338;48.280;10.970;2023-03-23T13:40:54;2.95;;;1.05;;
38567;SDS011;24338;48.280;10.970;2023-03-23T13:43:28;2.65;;;0.95;;
38567;SDS011;24338;48.280;10.970;2023-03-23T13:46:06;4.95;;;0.90;;
38567;SDS011;24338;48.280;10.970;2023-03-23T13:48:41;2.08;;;0.63;;
38567;SDS011;24338;48.280;10.970;2023-03-23T13:52:14;3.95;;;1.13;;
38567;SDS011;24338;48.280;10.970;2023-03-23T13:56:52;5.77;;;1.27;;
38567;SDS011;24338;48.280;10.970;2023-03-23T14:01:53;4.00;;;1.10;;
38567;SDS011;24338;48.280;10.970;2023-03-23T14:04:20;3.00;;;0.90;;
38567;SDS011;24338;48.280;10.970;2023-03-23T14:06:49;2.70;;;0.95;;
38567;SDS011;24338;48.280;10.970;2023-03-23T14:09:17;3.45;;;1.10;;
38567;SDS011;24338;48.280;10.970;2023-03-23T14:12:03;2.08;;;1.00;;
38567;SDS011;24338;48.280;10.970;2023-03-23T14:14:41;3.05;;;1.05;;
38567;SDS011;24338;48.280;10.970;2023-03-23T14:17:25;1.77;;;0.73;;
38567;SDS011;24338;48.280;10.970;2023-03-23T14:19:53;4.53;;;0.90;;
38567;SDS011;24338;48.280;10.970;2023-03-23T14:22:24;3.08;;;0.90;;
38567;SDS011;24338;48.280;10.970;2023-03-23T14:25:02;2.35;;;0.90;;
38567;SDS011;24338;48.280;10.970;2023-03-23T14:27:39;5.37;;;1.37;;
38567;SDS011;24338;48.280;10.970;2023-03-23T14:30:08;4.00;;;1.10;;
38567;SDS011;24338;48.280;10.970;2023-03-23T14:32:54;2.28;;;1.00;;
38567;SDS011;24338;48.280;10.970;2023-03-23T14:35:34;2.47;;;0.95;;
38567;SDS011;24338;48.280;10.970;2023-03-23T14:38:05;3.78;;;1.33;;
38567;SDS011;24338;48.280;10.970;2023-03-23T14:40:45;2.17;;;0.98;;
38567;SDS011;24338;48.280;10.970;2023-03-23T14:43:13;2.95;;;1.20;;
38567;SDS011;24338;48.280;10.970;2023-03-23T14:45:42;3.97;;;1.13;;
38567;SDS011;24338;48.280;10.970;2023-03-23T14:48:08;3.55;;;1.52;;
38567;SDS011;24338;48.280;10.970;2023-03-23T14:50:42;3.28;;;1.20;;
38567;SDS011;24338;48.280;10.970;2023-03-23T14:53:22;2.75;;;0.90;;
38567;SDS011;24338;48.280;10.970;2023-03-23T14:55:51;5.63;;;1.08;;
38567;SDS011;24338;48.280;10.970;2023-03-23T14:58:19;4.72;;;0.90;;
38567;SDS011;24338;48.280;10.970;2023-03-23T15:00:48;2.85;;;0.90;;
38567;SDS011;24338;48.280;10.970;2023-03-23T15:03:42;3.30;;;1.20;;
38567;SDS011;24338;48.280;10.970;2023-03-23T15:06:16;2.72;;;1.05;;
38567;SDS011;24338;48.280;10.970;2023-03-23T15:08:44;5.05;;;1.25;;
38567;SDS011;24338;48.280;10.970;2023-03-23T15:11:20;4.03;;;1.17;;
38567;SDS011;24338;48.280;10.970;2023-03-23T15:13:57;6.93;;;1.40;;
38567;SDS011;24338;48.280;10.970;2023-03-23T15:16:31;4.60;;;1.00;;
38567;SDS011;24338;48.280;10.970;2023-03-23T15:19:19;4.15;;;1.00;;
38567;SDS011;24338;48.280;10.970;2023-03-23T15:21:48;3.30;;;0.95;;
38567;SDS011;24338;48.280;10.970;2023-03-23T15:24:26;2.72;;;0.90;;
38567;SDS011;24338;48.280;10.970;2023-03-23T15:26:53;4.30;;;1.27;;
38567;SDS011;24338;48.280;10.970;2023-03-23T15:29:27;2.88;;;1.05;;
38567;SDS011;24338;48.280;10.970;2023-03-23T15:31:53;4.22;;;1.40;;
38567;SDS011;24338;48.280;10.970;2023-03-23T15:37:18;4.43;;;1.75;;
38567;SDS011;24338;48.280;10.970;2023-03-23T15:39:50;4.82;;;1.33;;
38567;SDS011;24338;48.280;10.970;2023-03-23T15:42:31;3.95;;;1.15;;
38567;SDS011;24338;48.280;10.970;2023-03-23T15:50:14;2.90;;;1.00;;
38567;SDS011;24338;48.280;10.970;2023-03-23T15:52:52;4.82;;;1.65;;
38567;SDS011;24338;48.280;10.970;2023-03-23T15:55:28;3.28;;;1.20;;
38567;SDS011;24338;48.280;10.970;2023-03-23T15:58:09;3.85;;;1.27;;
38567;SDS011;24338;48.280;10.970;2023-03-23T16:00:38;4.38;;;1.25;;
38567;SDS011;24338;48.280;10.970;2023-03-23T16:03:10;4.10;;;1.35;;
38567;SDS011;24338;48.280;10.970;2023-03-23T16:05:41;3.75;;;1.48;;
38567;SDS011;24338;48.280;10.970;2023-03-23T16:08:09;2.63;;;1.40;;
38567;SDS011;24338;48.280;10.970;2023-03-23T16:10:37;2.55;;;1.00;;
38567;SDS011;24338;48.280;10.970;2023-03-23T16:13:04;3.63;;;1.15;;
38567;SDS011;24338;48.280;10.970;2023-03-23T16:15:32;3.65;;;1.20;;
38567;SDS011;24338;48.280;10.970;2023-03-23T16:18:02;5.20;;;1.52;;
38567;SDS011;24338;48.280;10.970;2023-03-23T16:20:29;4.90;;;1.02;;
38567;SDS011;24338;48.280;10.970;2023-03-23T16:22:58;3.65;;;1.40;;
38567;SDS011;24338;48.280;10.970;2023-03-23T16:25:25;2.85;;;1.77;;
38567;SDS011;24338;48.280;10.970;2023-03-23T16:27:52;7.57;;;1.42;;
38567;SDS011;24338;48.280;10.970;2023-03-23T16:30:23;4.47;;;1.33;;
38567;SDS011;24338;48.280;10.970;2023-03-23T16:32:54;4.53;;;1.67;;
38567;SDS011;24338;48.280;10.970;2023-03-23T16:35:23;2.67;;;1.20;;
38567;SDS011;24338;48.280;10.970;2023-03-23T16:37:53;7.03;;;1.70;;
38567;SDS011;24338;48.280;10.970;2023-03-23T16:40:34;3.78;;;1.40;;
38567;SDS011;24338;48.280;10.970;2023-03-23T16:43:02;2.65;;;1.27;;
38567;SDS011;24338;48.280;10.970;2023-03-23T16:45:35;2.90;;;1.08;;
38567;SDS011;24338;48.280;10.970;2023-03-23T16:48:04;2.60;;;1.17;;
38567;SDS011;24338;48.280;10.970;2023-03-23T16:50:33;5.13;;;1.50;;
38567;SDS011;24338;48.280;10.970;2023-03-23T16:53:01;3.13;;;1.60;;
38567;SDS011;24338;48.280;10.970;2023-03-23T16:55:29;4.38;;;1.63;;
38567;SDS011;24338;48.280;10.970;2023-03-23T16:57:57;7.80;;;2.33;;
38567;SDS011;24338;48.280;10.970;2023-03-23T17:00:35;4.55;;;1.60;;
38567;SDS011;24338;48.280;10.970;2023-03-23T17:03:06;3.50;;;1.60;;
38567;SDS011;24338;48.280;10.970;2023-03-23T17:05:34;5.55;;;1.88;;
38567;SDS011;24338;48.280;10.970;2023-03-23T17:08:02;3.45;;;1.42;;
38567;SDS011;24338;48.280;10.970;2023-03-23T17:10:29;5.45;;;1.80;;
38567;SDS011;24338;48.280;10.970;2023-03-23T17:12:57;4.10;;;1.45;;
38567;SDS011;24338;48.280;10.970;2023-03-23T17:15:24;3.38;;;1.65;;
38567;SDS011;24338;48.280;10.970;2023-03-23T17:17:52;4.63;;;1.67;;